Time;durP1;ratioP1;P1;durP2;ratioP2;P2;SDS_P1;SDS_P2;PMS_P1;PMS_P2;Temp;Humidity;BMP_temperature;BMP_pressure;BME280_temperature;BME280_humidity;BME280_pressure;Samples;Min_cycle;Max_cycle;Signal;HPM_P1;HPM_P2
2021/07/27 00:05:13;;;;;;;7.20;4.38;;;24.40;50.00;;;;;;20751639;28;80533;-69
2021/07/27 00:15:15;;;;;;;8.30;3.90;;;24.30;50.50;;;;;;20765394;28;81485;-69
2021/07/27 00:25:17;;;;;;;8.75;4.13;;;24.10;51.00;;;;;;20710979;28;81879;-71
2021/07/27 00:35:20;;;;;;;6.22;4.40;;;24.10;50.80;;;;;;20754391;28;81081;-70
2021/07/27 00:45:22;;;;;;;5.57;3.55;;;24.20;49.70;;;;;;20720598;28;80528;-68
2021/07/27 00:55:28;;;;;;;6.40;3.38;;;24.50;46.60;;;;;;20717894;28;81767;-68
2021/07/27 01:05:30;;;;;;;8.50;2.97;;;24.60;46.00;;;;;;20717548;28;80583;-67
2021/07/27 01:15:33;;;;;;;5.20;2.50;;;24.70;46.10;;;;;;20714609;28;80910;-67
2021/07/27 01:46:24;;;;;;;6.50;2.15;;;24.90;47.70;;;;;;20724749;28;81918;-68
2021/07/27 01:56:30;;;;;;;5.65;2.65;;;24.80;48.70;;;;;;20775347;28;80657;-67
2021/07/27 02:06:43;;;;;;;5.25;2.20;;;24.70;49.40;;;;;;20714089;28;80880;-70
2021/07/27 02:16:52;;;;;;;5.28;2.42;;;24.60;50.20;;;;;;20759015;28;80660;-69
2021/07/27 02:27:14;;;;;;;7.57;2.43;;;24.60;50.60;;;;;;20741805;28;80614;-68
2021/07/27 02:37:36;;;;;;;4.77;2.80;;;24.50;51.80;;;;;;20769055;28;82339;-67
2021/07/27 02:47:58;;;;;;;3.92;2.22;;;24.40;52.20;;;;;;20748834;28;80350;-67
2021/07/27 02:58:19;;;;;;;3.55;2.10;;;24.40;52.40;;;;;;20729032;28;81154;-67
2021/07/27 03:08:50;;;;;;;3.97;1.95;;;24.30;53.40;;;;;;20711909;28;80691;-67
2021/07/27 03:19:02;;;;;;;6.63;2.15;;;24.10;53.70;;;;;;20712192;28;81121;-67
2021/07/27 03:29:10;;;;;;;6.07;2.60;;;23.90;55.10;;;;;;20732720;28;80682;-67
2021/07/27 03:39:22;;;;;;;4.97;2.42;;;23.60;56.10;;;;;;20753430;28;80719;-67
2021/07/27 03:49:30;;;;;;;7.28;2.55;;;23.40;56.60;;;;;;20709446;28;80818;-68
2021/07/27 03:59:51;;;;;;;4.73;2.63;;;23.30;57.30;;;;;;20708032;28;80359;-67
2021/07/27 04:10:12;;;;;;;5.47;2.83;;;23.10;57.80;;;;;;20703093;28;80202;-67
2021/07/27 04:20:27;;;;;;;6.93;2.60;;;23.00;58.00;;;;;;20713455;28;80660;-67
2021/07/27 04:30:34;;;;;;;6.80;3.10;;;22.90;58.80;;;;;;20765349;28;81721;-69
2021/07/27 04:40:46;;;;;;;4.55;2.47;;;22.90;58.80;;;;;;20735784;28;81079;-69
2021/07/27 04:51:11;;;;;;;8.23;2.85;;;22.90;58.30;;;;;;20728840;28;82499;-69
2021/07/27 05:01:19;;;;;;;6.72;3.00;;;22.90;58.50;;;;;;20776178;28;80176;-69
2021/07/27 05:11:40;;;;;;;7.47;3.15;;;22.70;59.40;;;;;;20720011;28;80433;-69
2021/07/27 05:22:02;;;;;;;5.30;2.65;;;22.70;59.80;;;;;;20752010;28;80631;-69
2021/07/27 05:32:24;;;;;;;5.77;3.07;;;22.60;59.90;;;;;;20754740;28;80411;-70
2021/07/27 05:42:45;;;;;;;9.73;3.27;;;22.60;60.10;;;;;;20742536;28;80112;-69
2021/07/27 05:53:06;;;;;;;3.67;2.47;;;22.60;60.40;;;;;;20753781;28;80850;-69
2021/07/27 06:03:22;;;;;;;9.43;3.95;;;22.80;60.20;;;;;;20745392;28;81037;-70
2021/07/27 06:13:32;;;;;;;7.63;3.42;;;22.80;60.20;;;;;;20731347;28;80993;-67
2021/07/27 06:23:37;;;;;;;7.03;3.15;;;22.90;60.80;;;;;;20749575;28;80912;-68
2021/07/27 06:33:43;;;;;;;6.25;3.28;;;23.00;59.70;;;;;;20760492;28;81101;-67
2021/07/27 06:43:48;;;;;;;9.07;4.03;;;23.10;59.00;;;;;;20741648;28;81080;-67
2021/07/27 06:53:53;;;;;;;46.53;30.80;;;23.30;58.20;;;;;;20749101;28;80655;-66
2021/07/27 07:03:58;;;;;;;7.43;3.88;;;23.50;57.70;;;;;;20743389;28;83699;-65
2021/07/27 07:14:02;;;;;;;49.13;32.47;;;23.60;57.20;;;;;;20734261;28;83908;-67
2021/07/27 07:24:06;;;;;;;13.63;5.53;;;23.70;57.90;;;;;;20718484;28;83245;-71
2021/07/27 07:34:09;;;;;;;10.18;5.65;;;23.80;57.00;;;;;;20736481;28;83728;-71
2021/07/27 07:44:12;;;;;;;7.45;3.20;;;23.90;56.50;;;;;;20729431;28;81668;-72
2021/07/27 07:54:18;;;;;;;7.68;3.95;;;24.10;56.30;;;;;;20749757;28;81448;-72
2021/07/27 08:04:24;;;;;;;5.95;3.58;;;24.20;56.00;;;;;;20771095;28;81171;-73
2021/07/27 08:14:28;;;;;;;5.63;3.10;;;24.30;55.00;;;;;;20749579;28;83154;-73
2021/07/27 08:24:32;;;;;;;7.15;3.20;;;24.40;54.80;;;;;;20756809;28;80459;-74
2021/07/27 08:34:38;;;;;;;5.38;2.97;;;24.50;54.50;;;;;;20734583;28;80467;-74
2021/07/27 08:44:44;;;;;;;5.90;3.10;;;24.80;53.70;;;;;;20761032;28;82455;-72
2021/07/27 08:54:48;;;;;;;8.52;3.63;;;24.90;52.80;;;;;;20758442;28;80671;-70
2021/07/27 09:05:11;;;;;;;6.03;3.42;;;25.00;52.50;;;;;;20779163;28;80720;-75
2021/07/27 09:15:16;;;;;;;52.58;35.75;;;25.10;51.70;;;;;;20766042;28;81127;-73
2021/07/27 09:25:25;;;;;;;10.13;5.10;;;25.30;52.10;;;;;;20742771;28;84359;-70
2021/07/27 09:35:28;;;;;;;9.07;4.35;;;25.80;50.50;;;;;;20782146;28;84435;-70
2021/07/27 09:45:32;;;;;;;8.48;3.80;;;26.40;48.70;;;;;;20778212;28;81209;-71
2021/07/27 09:55:37;;;;;;;6.97;3.67;;;26.90;47.30;;;;;;20770904;27;81049;-71
2021/07/27 10:05:51;;;;;;;8.57;4.22;;;27.20;46.30;;;;;;20792374;28;81001;-73
2021/07/27 10:15:55;;;;;;;10.80;3.45;;;27.70;45.20;;;;;;20777138;28;80840;-73
2021/07/27 10:25:58;;;;;;;7.35;3.35;;;28.00;44.20;;;;;;20788842;28;80545;-71
2021/07/27 10:36:03;;;;;;;5.50;3.58;;;28.40;43.60;;;;;;20786020;28;81074;-72
2021/07/27 10:46:06;;;;;;;5.10;3.30;;;28.90;42.60;;;;;;20776721;28;81601;-71
2021/07/27 10:56:08;;;;;;;5.60;3.55;;;29.70;40.50;;;;;;20786331;28;81556;-72
2021/07/27 11:06:11;;;;;;;4.80;3.13;;;33.40;34.20;;;;;;20769745;28;81398;-71
2021/07/27 11:16:13;;;;;;;9.10;3.95;;;33.90;34.00;;;;;;20778537;28;81268;-71
2021/07/27 11:26:18;;;;;;;7.80;3.55;;;35.60;31.20;;;;;;20759324;28;81623;-70
2021/07/27 11:36:25;;;;;;;7.75;3.20;;;37.40;27.90;;;;;;20764903;28;81042;-71
2021/07/27 11:46:38;;;;;;;9.82;7.38;;;39.30;26.20;;;;;;20757244;28;80810;-71
2021/07/27 11:56:47;;;;;;;5.85;2.88;;;41.20;23.70;;;;;;20768851;28;80694;-71
2021/07/27 12:06:57;;;;;;;4.03;3.03;;;41.50;22.60;;;;;;20754717;28;80747;-73
2021/07/27 12:16:59;;;;;;;6.82;4.15;;;40.30;23.80;;;;;;20757630;28;82005;-73
2021/07/27 12:27:02;;;;;;;6.30;5.00;;;39.90;24.50;;;;;;20721792;28;80817;-71
2021/07/27 12:37:05;;;;;;;3.65;2.95;;;42.90;21.50;;;;;;20752742;28;81600;-70
2021/07/27 12:47:08;;;;;;;3.55;3.17;;;44.40;19.40;;;;;;20750568;28;81777;-71
2021/07/27 12:57:13;;;;;;;5.28;3.63;;;43.40;20.10;;;;;;20708945;28;81065;-69
2021/07/27 13:07:17;;;;;;;5.03;4.00;;;43.20;20.60;;;;;;20739025;28;80124;-71
2021/07/27 13:17:19;;;;;;;4.55;3.90;;;44.40;19.40;;;;;;20648211;23;81431;-72
2021/07/27 13:27:25;;;;;;;5.18;3.22;;;45.10;18.90;;;;;;20178376;28;81153;-72
2021/07/27 13:37:30;;;;;;;6.28;3.72;;;45.90;18.20;;;;;;20096273;28;81272;-72
2021/07/27 13:47:34;;;;;;;4.78;3.47;;;42.90;19.80;;;;;;20112325;29;80753;-71
2021/07/27 13:57:37;;;;;;;4.57;3.20;;;43.10;19.60;;;;;;20103815;29;80295;-69
2021/07/27 14:07:40;;;;;;;5.18;3.05;;;38.40;23.40;;;;;;20122690;29;81064;-72
2021/07/27 14:17:44;;;;;;;5.57;2.72;;;36.30;23.90;;;;;;20131318;28;80735;-68
2021/07/27 14:27:49;;;;;;;5.68;3.50;;;35.40;24.70;;;;;;20157153;28;80937;-71
2021/07/27 14:37:54;;;;;;;4.32;2.40;;;34.90;24.60;;;;;;20135213;29;81025;-69
2021/07/27 14:47:56;;;;;;;6.60;2.50;;;34.60;24.00;;;;;;20127439;28;80776;-71
2021/07/27 14:57:59;;;;;;;63.28;10.90;;;34.30;25.00;;;;;;20122827;29;81605;-70
2021/07/27 15:08:01;;;;;;;7.55;5.05;;;33.40;29.30;;;;;;20109273;29;84141;-70
2021/07/27 15:18:05;;;;;;;15.52;3.83;;;33.10;27.70;;;;;;20138195;28;84066;-69
2021/07/27 15:28:07;;;;;;;6.85;2.92;;;33.00;27.80;;;;;;20123403;28;82111;-69
2021/07/27 15:38:11;;;;;;;6.88;2.60;;;32.90;27.70;;;;;;20121629;28;81833;-70
2021/07/27 15:48:13;;;;;;;3.17;2.60;;;33.00;27.40;;;;;;20207863;28;82415;-68
2021/07/27 15:58:15;;;;;;;5.28;2.85;;;32.90;26.80;;;;;;20171435;28;80827;-70
2021/07/27 16:08:22;;;;;;;5.93;2.60;;;32.80;26.60;;;;;;20138129;28;79996;-69
2021/07/27 16:18:25;;;;;;;10.73;3.80;;;32.70;27.00;;;;;;20138042;28;80729;-69
2021/07/27 16:28:30;;;;;;;3.38;2.30;;;32.60;27.50;;;;;;20120041;29;80511;-71
2021/07/27 16:38:32;;;;;;;5.63;2.88;;;32.50;27.80;;;;;;20123876;28;80336;-70
2021/07/27 16:48:34;;;;;;;5.07;2.67;;;32.40;27.60;;;;;;20127906;29;81761;-70
2021/07/27 16:58:37;;;;;;;4.28;2.90;;;32.20;27.20;;;;;;20125927;28;80884;-70
2021/07/27 17:08:40;;;;;;;5.80;4.03;;;32.00;27.20;;;;;;20146937;28;80681;-71
2021/07/27 17:18:42;;;;;;;4.93;3.40;;;31.90;27.90;;;;;;20142871;28;81249;-71
2021/07/27 17:28:45;;;;;;;5.40;3.42;;;31.90;27.30;;;;;;20135232;28;80810;-70
2021/07/27 17:38:49;;;;;;;4.25;2.83;;;31.60;27.40;;;;;;20133954;29;81984;-72
2021/07/27 17:48:51;;;;;;;20.38;15.35;;;31.60;27.90;;;;;;20150880;28;81223;-69
2021/07/27 17:58:53;;;;;;;7.40;3.78;;;31.50;28.00;;;;;;20129230;28;82982;-70
2021/07/27 18:08:55;;;;;;;5.60;4.45;;;31.40;27.20;;;;;;20137557;28;83625;-71
2021/07/27 18:18:58;;;;;;;9.55;4.72;;;31.30;28.20;;;;;;20129281;29;81852;-73
2021/07/27 18:28:59;;;;;;;5.57;3.85;;;31.20;28.80;;;;;;20140009;28;79961;-71
2021/07/27 18:39:01;;;;;;;6.97;3.58;;;31.00;29.10;;;;;;20138617;28;80445;-70
2021/07/27 18:49:09;;;;;;;15.27;12.43;;;30.90;29.10;;;;;;20113700;28;81657;-70
2021/07/27 18:59:11;;;;;;;11.55;8.00;;;30.80;29.30;;;;;;20128243;28;82997;-68
2021/07/27 19:09:13;;;;;;;7.43;5.15;;;30.60;30.00;;;;;;20120686;28;83331;-68
2021/07/27 19:19:15;;;;;;;5.85;4.55;;;30.40;30.00;;;;;;20124964;28;83016;-69
2021/07/27 19:29:17;;;;;;;4.93;3.70;;;30.30;30.70;;;;;;20131691;28;80761;-69
2021/07/27 19:39:19;;;;;;;4.75;3.53;;;30.20;30.50;;;;;;20149927;28;81190;-70
2021/07/27 19:59:24;;;;;;;8.90;7.22;;;30.00;31.60;;;;;;20118862;28;81688;-70
2021/07/27 20:09:28;;;;;;;9.75;7.10;;;29.90;31.50;;;;;;20110809;28;80709;-69
2021/07/27 20:19:32;;;;;;;20.42;11.73;;;29.80;33.10;;;;;;20108329;28;81860;-69
2021/07/27 20:29:34;;;;;;;13.15;7.65;;;29.60;32.80;;;;;;20116008;28;82918;-69
2021/07/27 20:39:35;;;;;;;11.60;8.15;;;29.50;33.50;;;;;;20103561;28;83113;-71
2021/07/27 20:49:39;;;;;;;8.20;5.55;;;29.50;33.60;;;;;;20113512;28;81010;-70
2021/07/27 20:59:42;;;;;;;7.65;5.25;;;29.40;33.50;;;;;;20109604;28;80771;-67
2021/07/27 21:09:45;;;;;;;16.17;12.63;;;29.40;33.60;;;;;;20098358;28;81574;-69
2021/07/27 21:19:48;;;;;;;7.22;5.93;;;29.30;33.90;;;;;;20095814;28;83513;-68
2021/07/27 21:29:50;;;;;;;13.93;9.93;;;29.30;33.30;;;;;;20115895;28;83281;-68
2021/07/27 21:39:52;;;;;;;17.75;14.25;;;29.20;33.00;;;;;;20114135;28;81230;-68
2021/07/27 21:49:54;;;;;;;8.48;6.45;;;29.10;32.80;;;;;;20103747;28;83261;-70
2021/07/27 21:59:56;;;;;;;11.88;5.90;;;29.00;33.40;;;;;;20101581;28;83629;-69
2021/07/27 22:10:00;;;;;;;13.88;6.47;;;29.00;33.40;;;;;;20094268;28;80193;-69
2021/07/27 22:20:03;;;;;;;9.27;4.43;;;28.90;33.00;;;;;;20095277;28;81302;-69
2021/07/27 22:30:05;;;;;;;5.47;4.22;;;28.70;34.70;;;;;;20095858;28;81267;-70
2021/07/27 22:40:09;;;;;;;6.55;3.75;;;28.40;34.90;;;;;;20096091;28;81949;-69
2021/07/27 22:50:11;;;;;;;4.72;2.97;;;28.10;33.80;;;;;;20075902;28;81625;-69
2021/07/27 23:00:16;;;;;;;4.95;3.10;;;27.90;33.80;;;;;;20114397;28;81198;-69
2021/07/27 23:10:18;;;;;;;4.05;2.90;;;27.70;34.10;;;;;;20140445;28;80996;-69
2021/07/27 23:20:20;;;;;;;6.65;3.67;;;27.50;34.30;;;;;;20136693;28;80617;-68
2021/07/27 23:30:22;;;;;;;7.03;3.30;;;27.20;35.10;;;;;;20134931;28;80761;-68
2021/07/27 23:40:24;;;;;;;4.72;2.78;;;27.00;35.00;;;;;;20133035;28;80588;-69
2021/07/27 23:50:26;;;;;;;6.38;3.10;;;26.90;34.60;;;;;;20137911;29;80477;-69
